ESNU

Umeå Airport

Umeå, Sweden
METAR ESNU 161420Z AUTO 33010KT 9999 OVC018/// M04/M05 Q1003 R14/72//60
Observed Flight Rules
Dec-16 @ 14:20 UTC (24 minutes ago) Marginal Visual Flight Rules
Wind Visibility Clouds
330° at 10 knots 10,000+ meters
  • Overcast at 1,800' AGL
Temperatures Readings
Current -4°C / 25°F
Dewpoint -5°C / 23°F
Humidity 93%
Altimeter 29.62" Hg
Pressure 1003 hPa
Elevation 14
METAR ESNU 161420Z AUTO 33010KT 9999 OVC018/// M04/M05 Q1003 R14/72//60
Observed Flight Rules
Dec-16 @ 14:20 UTC
(24 minutes ago)
MVFR
Wind Visibility
330° at 10 knots 10,000+ meters
Clouds
  • Overcast at 1,800' AGL
Temperature Dewpoint
-4°C / 25°F -5°C / 23°F
Humidity Altimeter Pressure
93% 29.62" Hg 1003 hPa